createdAt,value
2022-12-23T00:00:10.022Z,14.9
2022-12-23T00:01:26.213Z,14.9
2022-12-23T00:02:42.393Z,14.9
2022-12-23T00:05:14.772Z,14.9
2022-12-23T00:06:30.955Z,14.8
2022-12-23T00:07:46.160Z,14.8
2022-12-23T00:10:18.554Z,14.8
2022-12-23T00:11:34.742Z,14.8
2022-12-23T00:12:50.933Z,14.8
2022-12-23T00:15:23.307Z,14.8
2022-12-23T00:16:39.495Z,14.8
2022-12-23T00:17:55.677Z,14.8
2022-12-23T00:20:28.069Z,14.8
2022-12-23T00:21:44.244Z,14.8
2022-12-23T00:25:32.825Z,14.8
2022-12-23T00:28:05.200Z,14.8
2022-12-23T00:29:21.508Z,14.8
2022-12-23T00:31:53.892Z,14.8
2022-12-23T00:33:10.082Z,14.9
2022-12-23T00:34:26.263Z,14.9
2022-12-23T00:36:58.633Z,14.9
2022-12-23T00:38:14.839Z,14.9
2022-12-23T00:40:47.215Z,14.9
2022-12-23T00:43:19.579Z,14.9
2022-12-23T00:45:51.973Z,14.9
2022-12-23T00:47:08.167Z,14.9
2022-12-23T00:50:55.727Z,14.9
2022-12-23T00:52:11.928Z,14.9
2022-12-23T00:53:28.108Z,14.9
2022-12-23T00:54:44.304Z,14.9
2022-12-23T00:56:00.496Z,14.9
2022-12-23T00:58:32.872Z,14.9
2022-12-23T00:59:49.053Z,14.9
2022-12-23T01:02:21.444Z,14.9
2022-12-23T01:03:37.628Z,14.9
2022-12-23T01:06:09.999Z,14.9
2022-12-23T01:07:26.190Z,14.9
2022-12-23T01:08:41.394Z,14.9
2022-12-23T01:11:13.789Z,14.9
2022-12-23T01:12:29.961Z,14.9
2022-12-23T01:13:46.163Z,14.9
2022-12-23T01:15:02.355Z,14.9
2022-12-23T01:16:18.546Z,14.9
2022-12-23T01:18:50.916Z,14.9
2022-12-23T01:21:23.288Z,14.9
2022-12-23T01:22:39.490Z,14.9
2022-12-23T01:23:55.680Z,14.9
2022-12-23T01:29:00.434Z,14.9
2022-12-23T01:31:32.810Z,14.9
2022-12-23T01:32:48.993Z,14.9
2022-12-23T01:34:05.310Z,14.9
2022-12-23T01:36:37.690Z,14.9
2022-12-23T01:37:53.868Z,14.9
2022-12-23T01:39:10.070Z,14.9
2022-12-23T01:40:26.244Z,14.9
2022-12-23T01:41:42.433Z,14.9
2022-12-23T01:42:58.631Z,14.9
2022-12-23T01:44:14.827Z,14.9
2022-12-23T01:45:31.018Z,14.9
2022-12-23T01:46:47.194Z,14.9
2022-12-23T01:48:03.392Z,14.9
2022-12-23T01:49:19.573Z,14.9
2022-12-23T01:53:08.261Z,14.9
2022-12-23T01:54:24.454Z,14.9
2022-12-23T01:56:56.827Z,14.9
2022-12-23T01:59:29.221Z,14.9
2022-12-23T02:00:45.405Z,14.9
2022-12-23T02:02:01.580Z,14.9
2022-12-23T02:03:17.773Z,14.9
2022-12-23T02:04:33.974Z,15
2022-12-23T02:07:06.353Z,14.9
2022-12-23T02:09:38.720Z,14.9
2022-12-23T02:10:55.035Z,14.9
2022-12-23T02:12:11.228Z,14.9
2022-12-23T02:15:59.788Z,14.9
2022-12-23T02:18:32.178Z,14.9
2022-12-23T02:19:48.359Z,14.9
2022-12-23T02:22:20.732Z,14.9
2022-12-23T02:23:36.922Z,14.9
2022-12-23T02:24:53.110Z,14.9
2022-12-23T02:26:09.305Z,14.9
2022-12-23T02:27:24.515Z,14.9
2022-12-23T02:29:56.891Z,14.9
2022-12-23T02:31:13.085Z,14.9
2022-12-23T02:33:45.465Z,14.9
2022-12-23T02:35:01.638Z,14.9
2022-12-23T02:37:34.020Z,14.9
2022-12-23T02:40:06.403Z,14.9
2022-12-23T02:45:11.151Z,14.9
2022-12-23T02:46:27.349Z,14.9
2022-12-23T02:47:42.553Z,14.9
2022-12-23T02:48:58.755Z,14.9
2022-12-23T02:54:03.510Z,14.9
2022-12-23T02:55:19.697Z,14.9
2022-12-23T02:57:52.071Z,14.9
2022-12-23T03:00:24.459Z,14.9
2022-12-23T03:01:40.640Z,14.9
2022-12-23T03:02:56.830Z,14.9
2022-12-23T03:04:13.019Z,14.9
2022-12-23T03:05:28.227Z,14.9
2022-12-23T03:10:32.981Z,14.9
2022-12-23T03:13:05.352Z,14.9
2022-12-23T03:15:37.000Z,14.9
2022-12-23T03:16:53.932Z,14.9
2022-12-23T03:18:10.127Z,14.9
2022-12-23T03:19:26.300Z,14.9
2022-12-23T03:20:42.499Z,14.9
2022-12-23T03:21:58.801Z,14.9
2022-12-23T03:23:14.995Z,14.9
2022-12-23T03:24:31.189Z,14.9
2022-12-23T03:25:47.381Z,14.9
2022-12-23T03:29:35.939Z,14.9
2022-12-23T03:32:08.313Z,14.9
2022-12-23T03:33:24.518Z,15
2022-12-23T03:34:40.700Z,15
2022-12-23T03:35:56.886Z,15
2022-12-23T03:38:29.257Z,14.9
2022-12-23T03:39:45.568Z,14.9
2022-12-23T03:42:17.947Z,14.9
2022-12-23T03:43:34.148Z,14.9
2022-12-23T03:47:22.704Z,14.9
2022-12-23T03:48:38.910Z,14.9
2022-12-23T03:49:55.082Z,14.9
2022-12-23T03:51:11.280Z,14.9
2022-12-23T03:52:27.464Z,15
2022-12-23T03:53:43.650Z,14.9
2022-12-23T03:54:59.856Z,14.9
2022-12-23T03:56:16.045Z,15
2022-12-23T03:57:32.370Z,14.9
2022-12-23T04:01:20.907Z,14.9
2022-12-23T04:03:53.286Z,15
2022-12-23T04:06:25.668Z,15
2022-12-23T04:08:58.053Z,15
2022-12-23T04:10:14.238Z,14.9
2022-12-23T04:12:46.610Z,15
2022-12-23T04:14:01.823Z,15
2022-12-23T04:15:18.015Z,14.9
2022-12-23T04:16:34.201Z,15
2022-12-23T04:17:50.384Z,14.9
2022-12-23T04:19:06.576Z,14.9
2022-12-23T04:21:38.958Z,14.9
2022-12-23T04:26:43.708Z,14.9
2022-12-23T04:29:16.095Z,14.9
2022-12-23T04:33:04.791Z,14.9
2022-12-23T04:34:20.975Z,14.9
2022-12-23T04:40:41.909Z,14.9
2022-12-23T04:43:14.280Z,14.9
2022-12-23T04:44:30.469Z,14.9
2022-12-23T04:47:02.845Z,14.9
2022-12-23T04:48:19.169Z,14.9
2022-12-23T04:52:07.726Z,14.9
2022-12-23T04:53:23.914Z,14.9
2022-12-23T04:54:40.102Z,14.9
2022-12-23T04:57:12.480Z,14.9
2022-12-23T04:58:28.666Z,14.9
2022-12-23T04:59:44.850Z,14.9
2022-12-23T05:02:17.232Z,14.9
2022-12-23T05:04:49.606Z,14.9
2022-12-23T05:06:05.917Z,14.9
2022-12-23T05:08:38.275Z,14.9
2022-12-23T05:09:54.475Z,14.9
2022-12-23T05:11:10.648Z,14.9
2022-12-23T05:12:26.842Z,14.9
2022-12-23T05:16:15.403Z,14.9
2022-12-23T05:18:47.786Z,14.9
2022-12-23T05:20:03.969Z,14.9
2022-12-23T05:21:20.153Z,14.9
2022-12-23T05:22:35.374Z,14.9
2022-12-23T05:23:51.539Z,14.9
2022-12-23T05:25:07.745Z,14.9
2022-12-23T05:26:23.913Z,14.9
2022-12-23T05:30:12.492Z,14.9
2022-12-23T05:32:44.864Z,14.9
2022-12-23T05:34:01.045Z,14.9
2022-12-23T05:36:33.415Z,14.9
2022-12-23T05:37:49.601Z,14.9
2022-12-23T05:40:22.105Z,14.9
2022-12-23T05:41:38.301Z,14.9
2022-12-23T05:42:54.472Z,14.9
2022-12-23T05:44:10.666Z,14.9
2022-12-23T05:45:26.860Z,14.9
2022-12-23T05:46:43.048Z,14.9
2022-12-23T05:47:59.228Z,14.9
2022-12-23T05:50:31.608Z,14.9
2022-12-23T05:51:47.798Z,14.9
2022-12-23T05:53:03.991Z,14.9
2022-12-23T05:54:20.165Z,14.9
2022-12-23T05:56:51.564Z,14.9
2022-12-23T05:58:07.766Z,14.9
2022-12-23T06:00:40.127Z,14.9
2022-12-23T06:01:56.324Z,14.9
2022-12-23T06:03:12.501Z,14.9
2022-12-23T06:04:28.687Z,14.9
2022-12-23T06:05:44.879Z,14.9
2022-12-23T06:08:17.250Z,14.9
2022-12-23T06:09:33.431Z,14.9
2022-12-23T06:10:49.626Z,14.9
2022-12-23T06:12:05.803Z,14.9
2022-12-23T06:13:21.004Z,14.9
2022-12-23T06:14:37.197Z,14.9
2022-12-23T06:15:53.381Z,14.9
2022-12-23T06:19:41.956Z,14.9
2022-12-23T06:20:58.139Z,14.9
2022-12-23T06:22:14.324Z,14.9
2022-12-23T06:23:30.515Z,14.9
2022-12-23T06:24:46.711Z,14.9
2022-12-23T06:26:02.882Z,14.9
2022-12-23T06:27:19.067Z,14.9
2022-12-23T06:28:35.254Z,14.9
2022-12-23T06:29:51.570Z,14.9
2022-12-23T06:33:40.142Z,14.9
2022-12-23T06:34:56.314Z,14.9
2022-12-23T06:36:12.509Z,14.9
2022-12-23T06:37:28.694Z,14.9
2022-12-23T06:40:01.071Z,14.9
2022-12-23T06:42:33.452Z,14.9
2022-12-23T06:47:38.199Z,14.9
2022-12-23T06:48:53.409Z,14.9
2022-12-23T06:50:09.582Z,14.9
2022-12-23T06:51:25.782Z,14.9
2022-12-23T06:52:41.969Z,14.9
2022-12-23T06:53:58.145Z,14.9
2022-12-23T06:56:30.527Z,14.9
2022-12-23T06:59:02.900Z,14.9
2022-12-23T07:01:35.285Z,14.9
2022-12-23T07:02:51.455Z,14.9
2022-12-23T07:04:07.771Z,14.9
2022-12-23T07:05:23.963Z,14.9
2022-12-23T07:06:40.159Z,14.9
2022-12-23T07:07:56.353Z,14.9
2022-12-23T07:09:12.525Z,14.9
2022-12-23T07:11:44.896Z,14.9
2022-12-23T07:15:33.459Z,15
2022-12-23T07:16:49.652Z,15
2022-12-23T07:19:22.021Z,15
2022-12-23T07:20:38.349Z,15
2022-12-23T07:24:26.895Z,15
2022-12-23T07:25:43.096Z,15
2022-12-23T07:26:59.271Z,15
2022-12-23T07:29:31.658Z,15
2022-12-23T07:30:47.830Z,15
2022-12-23T07:32:04.035Z,15
2022-12-23T07:35:52.581Z,15
2022-12-23T07:37:08.889Z,15
2022-12-23T07:38:25.080Z,15
2022-12-23T07:39:41.282Z,15
2022-12-23T07:42:13.642Z,15
2022-12-23T07:43:29.838Z,15
2022-12-23T07:44:46.016Z,15
2022-12-23T07:49:50.763Z,15
2022-12-23T07:51:06.955Z,15
2022-12-23T07:52:23.149Z,15
2022-12-23T07:53:39.461Z,15
2022-12-23T07:58:44.197Z,15
2022-12-23T08:00:00.398Z,15
2022-12-23T08:01:16.588Z,15
2022-12-23T08:02:32.769Z,15
2022-12-23T08:03:48.963Z,15
2022-12-23T08:05:05.144Z,15
2022-12-23T08:06:21.332Z,15
2022-12-23T08:07:37.521Z,15
2022-12-23T08:08:53.709Z,15
2022-12-23T08:10:09.897Z,15
2022-12-23T08:12:42.272Z,15
2022-12-23T08:13:58.589Z,15
2022-12-23T08:15:14.764Z,15
2022-12-23T08:16:30.950Z,15
2022-12-23T08:17:47.144Z,15
2022-12-23T08:20:19.521Z,15
2022-12-23T08:21:35.703Z,15
2022-12-23T08:22:51.889Z,15
2022-12-23T08:24:08.087Z,15
2022-12-23T08:27:56.635Z,15.1
2022-12-23T08:29:12.823Z,15
2022-12-23T08:30:28.034Z,15
2022-12-23T08:31:44.213Z,15
2022-12-23T08:35:32.784Z,15.1
2022-12-23T08:36:48.959Z,15.1
2022-12-23T08:39:21.342Z,15.1
2022-12-23T08:40:37.539Z,15.1
2022-12-23T08:43:09.899Z,15.1
2022-12-23T08:44:26.102Z,15.1
2022-12-23T08:45:42.288Z,15.1
2022-12-23T08:46:58.584Z,15.1
2022-12-23T08:50:47.163Z,15.1
2022-12-23T08:52:03.342Z,15.1
2022-12-23T08:53:19.537Z,15.1
2022-12-23T08:55:51.912Z,15.1
2022-12-23T08:59:40.467Z,15.1
2022-12-23T09:00:56.644Z,15.1
2022-12-23T09:02:12.841Z,15.1
2022-12-23T09:03:28.046Z,15.1
2022-12-23T09:08:32.799Z,15.1
2022-12-23T09:09:48.974Z,15.1
2022-12-23T09:11:05.162Z,15.1
2022-12-23T09:12:21.364Z,15.1
2022-12-23T09:13:37.550Z,15.2
2022-12-23T09:19:58.490Z,15.2
2022-12-23T09:21:13.695Z,15.2
2022-12-23T09:23:46.069Z,15.2
2022-12-23T09:25:02.250Z,15.2
2022-12-23T09:27:34.620Z,15.2
2022-12-23T09:30:07.002Z,15.2
2022-12-23T09:31:23.196Z,15.2
2022-12-23T09:32:39.378Z,15.2
2022-12-23T09:33:55.559Z,15.2
2022-12-23T09:36:27.940Z,15.2
2022-12-23T09:39:00.434Z,15.2
2022-12-23T09:40:16.617Z,15.2
2022-12-23T09:41:32.793Z,15.2
2022-12-23T09:42:48.979Z,15.2
2022-12-23T09:44:04.201Z,15.2
2022-12-23T09:45:19.423Z,15.2
2022-12-23T09:46:35.598Z,15.2
2022-12-23T09:47:51.792Z,15.2
2022-12-23T09:49:07.968Z,15.2
2022-12-23T09:50:24.131Z,15.2
2022-12-23T09:51:40.352Z,15.2
2022-12-23T09:52:56.542Z,15.2
2022-12-23T09:54:12.723Z,15.2
2022-12-23T09:55:28.919Z,15.2
2022-12-23T09:56:45.105Z,15.2
2022-12-23T09:58:00.285Z,15.2
2022-12-23T09:59:15.529Z,15.2
2022-12-23T10:00:31.710Z,15.2
2022-12-23T10:01:47.900Z,15.2
2022-12-23T10:03:04.060Z,15.3
2022-12-23T10:04:20.263Z,15.3
2022-12-23T10:05:36.459Z,15.3
2022-12-23T10:06:52.620Z,15.3
2022-12-23T10:08:08.831Z,15.3
2022-12-23T10:09:25.024Z,15.3
2022-12-23T10:10:41.183Z,15.3
2022-12-23T10:11:56.418Z,15.3
2022-12-23T10:13:11.598Z,15.3
2022-12-23T10:14:26.816Z,15.3
2022-12-23T10:15:42.009Z,15.3
2022-12-23T10:18:14.414Z,15.3
2022-12-23T10:19:30.597Z,15.3
2022-12-23T10:20:46.801Z,15.3
2022-12-23T10:22:02.951Z,15.3
2022-12-23T10:23:19.172Z,15.3
2022-12-23T10:24:35.350Z,15.3
2022-12-23T10:25:51.518Z,15.3
2022-12-23T10:27:07.740Z,15.3
2022-12-23T10:28:23.879Z,15.3
2022-12-23T10:29:40.104Z,15.3
2022-12-23T10:30:56.293Z,15.3
2022-12-23T10:32:11.467Z,15.4
2022-12-23T10:33:27.694Z,15.5
2022-12-23T10:34:43.872Z,15.5
2022-12-23T10:36:00.059Z,15.6
2022-12-23T10:37:16.257Z,15.7
2022-12-23T10:38:32.446Z,15.7
2022-12-23T10:39:48.614Z,15.7
2022-12-23T10:41:04.784Z,15.7
2022-12-23T10:42:19.986Z,15.8
2022-12-23T10:43:35.200Z,15.8
2022-12-23T10:44:50.402Z,15.8
2022-12-23T10:46:05.618Z,15.9
2022-12-23T10:47:21.834Z,15.9
2022-12-23T10:48:37.991Z,15.9
2022-12-23T10:49:54.167Z,15.9
2022-12-23T10:51:10.356Z,16
2022-12-23T10:52:26.550Z,16
2022-12-23T10:53:42.765Z,16
2022-12-23T10:54:58.960Z,16
2022-12-23T10:56:15.144Z,16
2022-12-23T10:57:31.336Z,16
2022-12-23T10:58:47.485Z,16
2022-12-23T11:00:03.722Z,15.9
2022-12-23T11:01:19.866Z,15.9
2022-12-23T11:02:35.092Z,15.9
2022-12-23T11:03:51.299Z,15.9
2022-12-23T11:05:07.485Z,15.9
2022-12-23T11:06:23.612Z,15.9
2022-12-23T11:07:39.817Z,15.9
2022-12-23T11:08:56.042Z,15.8
2022-12-23T11:10:12.193Z,15.8
2022-12-23T11:11:27.447Z,15.8
2022-12-23T11:12:42.652Z,15.8
2022-12-23T11:13:57.807Z,15.8
2022-12-23T11:15:13.067Z,15.8
2022-12-23T11:16:29.249Z,15.8
2022-12-23T11:17:45.442Z,15.8
2022-12-23T11:19:00.650Z,15.8
2022-12-23T11:20:16.824Z,15.8
2022-12-23T11:21:32.983Z,15.8
2022-12-23T11:22:49.153Z,15.7
2022-12-23T11:24:05.400Z,15.8
2022-12-23T11:25:21.572Z,15.8
2022-12-23T11:26:37.713Z,15.8
2022-12-23T11:27:53.967Z,15.8
2022-12-23T11:29:10.089Z,15.8
2022-12-23T11:30:26.333Z,15.8
2022-12-23T11:31:42.476Z,15.7
2022-12-23T11:32:58.698Z,15.8
2022-12-23T11:34:14.901Z,15.8
2022-12-23T11:35:30.054Z,15.7
2022-12-23T11:36:46.241Z,15.7
2022-12-23T11:38:02.466Z,15.7
2022-12-23T11:39:18.670Z,15.7
2022-12-23T11:40:33.878Z,15.7
2022-12-23T11:41:49.074Z,15.7
2022-12-23T11:43:04.290Z,15.7
2022-12-23T11:44:19.451Z,15.7
2022-12-23T11:45:35.679Z,15.7
2022-12-23T11:46:51.827Z,15.7
2022-12-23T11:48:08.060Z,15.7
2022-12-23T11:49:24.251Z,15.7
2022-12-23T11:50:40.440Z,15.7
2022-12-23T11:51:56.627Z,15.7
2022-12-23T11:53:12.801Z,15.7
2022-12-23T11:54:28.950Z,15.7
2022-12-23T11:55:45.191Z,15.7
2022-12-23T11:57:01.368Z,15.7
2022-12-23T11:58:17.570Z,15.7
2022-12-23T11:59:33.693Z,15.8
2022-12-23T12:00:48.898Z,15.8
2022-12-23T12:02:05.134Z,15.9
2022-12-23T12:03:21.321Z,15.9
2022-12-23T12:04:37.461Z,15.9
2022-12-23T12:05:53.699Z,16
2022-12-23T12:07:09.837Z,16
2022-12-23T12:08:26.070Z,16
2022-12-23T12:09:41.226Z,16
2022-12-23T12:10:56.484Z,16
2022-12-23T12:12:11.711Z,16.1
2022-12-23T12:13:26.848Z,16
2022-12-23T12:14:43.044Z,16.1
2022-12-23T12:15:59.286Z,16.1
2022-12-23T12:17:15.410Z,16.1
2022-12-23T12:18:31.666Z,16.1
2022-12-23T12:19:47.855Z,16.1
2022-12-23T12:21:04.033Z,16.1
2022-12-23T12:22:20.172Z,16
2022-12-23T12:23:36.404Z,16
2022-12-23T12:24:52.541Z,16
2022-12-23T12:26:08.728Z,16
2022-12-23T12:27:24.980Z,16
2022-12-23T12:28:41.155Z,15.9
2022-12-23T12:29:56.313Z,16
2022-12-23T12:31:12.555Z,15.9
2022-12-23T12:32:28.745Z,15.9
2022-12-23T12:33:44.929Z,16
2022-12-23T12:35:01.107Z,15.9
2022-12-23T12:36:17.294Z,16
2022-12-23T12:37:33.423Z,16
2022-12-23T12:38:48.648Z,15.9
2022-12-23T12:40:03.836Z,15.9
2022-12-23T12:41:20.094Z,15.9
2022-12-23T12:42:35.255Z,15.9
2022-12-23T12:43:50.520Z,15.9
2022-12-23T12:45:06.648Z,15.9
2022-12-23T12:46:22.895Z,15.9
2022-12-23T12:47:39.010Z,16
2022-12-23T12:48:55.210Z,16
2022-12-23T12:50:11.447Z,16.1
2022-12-23T12:51:27.573Z,16.1
2022-12-23T12:52:43.819Z,16.2
2022-12-23T12:54:00.012Z,16.2
2022-12-23T12:55:16.202Z,16.2
2022-12-23T12:56:32.390Z,16.2
2022-12-23T12:57:48.510Z,16.2
2022-12-23T12:59:04.753Z,16.2
2022-12-23T13:00:19.896Z,16.3
2022-12-23T13:01:36.144Z,16.3
2022-12-23T13:02:52.000Z,16.3
2022-12-23T13:04:08.452Z,16.3
2022-12-23T13:05:24.648Z,16.3
2022-12-23T13:06:40.825Z,16.4
2022-12-23T13:07:57.030Z,16.4
2022-12-23T13:09:12.311Z,16.4
2022-12-23T13:10:27.507Z,16.4
2022-12-23T13:11:43.700Z,16.5
2022-12-23T13:12:59.893Z,16.4
2022-12-23T13:14:16.073Z,16.4
2022-12-23T13:15:32.197Z,16.4
2022-12-23T13:16:48.372Z,16.4
2022-12-23T13:18:04.637Z,16.4
2022-12-23T13:19:20.817Z,16.4
2022-12-23T13:20:37.004Z,16.4
2022-12-23T13:21:53.191Z,16.4
2022-12-23T13:23:09.310Z,16.4
2022-12-23T13:24:25.579Z,16.4
2022-12-23T13:25:41.767Z,16.4
2022-12-23T13:26:56.971Z,16.4
2022-12-23T13:28:13.156Z,16.4
2022-12-23T13:29:29.263Z,16.4
2022-12-23T13:30:45.440Z,16.4
2022-12-23T13:32:01.715Z,16.4
2022-12-23T13:33:17.826Z,16.4
2022-12-23T13:34:34.002Z,16.4
2022-12-23T13:35:49.229Z,16.5
2022-12-23T13:37:04.500Z,16.5
2022-12-23T13:38:20.616Z,16.5
2022-12-23T13:39:36.886Z,16.5
2022-12-23T13:40:53.058Z,16.5
2022-12-23T13:42:09.172Z,16.5
2022-12-23T13:43:25.438Z,16.5
2022-12-23T13:44:41.616Z,16.5
2022-12-23T13:45:57.823Z,16.5
2022-12-23T13:47:14.002Z,16.5
2022-12-23T13:48:30.197Z,16.5
2022-12-23T13:49:46.382Z,16.5
2022-12-23T13:51:02.492Z,16.5
2022-12-23T13:52:18.747Z,16.5
2022-12-23T13:53:33.871Z,16.5
2022-12-23T13:54:50.133Z,16.5
2022-12-23T13:56:06.258Z,16.6
2022-12-23T13:57:22.513Z,16.5
2022-12-23T13:58:38.714Z,16.6
2022-12-23T13:59:54.890Z,16.5
2022-12-23T14:01:10.993Z,16.5
2022-12-23T14:02:26.299Z,16.5
2022-12-23T14:03:41.504Z,16.6
2022-12-23T14:04:56.629Z,16.5
2022-12-23T14:06:11.921Z,16.5
2022-12-23T14:07:28.095Z,16.6
2022-12-23T14:08:44.205Z,16.5
2022-12-23T14:10:00.391Z,16.6
2022-12-23T14:11:16.575Z,16.6
2022-12-23T14:12:32.849Z,16.6
2022-12-23T14:13:48.964Z,16.6
2022-12-23T14:15:05.223Z,16.6
2022-12-23T14:16:21.422Z,16.6
2022-12-23T14:17:37.612Z,16.6
2022-12-23T14:18:53.791Z,16.6
2022-12-23T14:20:09.980Z,16.6
2022-12-23T14:21:26.172Z,16.6
2022-12-23T14:22:41.387Z,16.6
2022-12-23T14:23:57.494Z,16.6
2022-12-23T14:25:13.758Z,16.6
2022-12-23T14:26:29.873Z,16.6
2022-12-23T14:27:46.135Z,16.6
2022-12-23T14:29:02.329Z,16.6
2022-12-23T14:30:18.517Z,16.6
2022-12-23T14:31:33.649Z,16.6
2022-12-23T14:32:48.850Z,16.6
2022-12-23T14:34:04.143Z,16.6
2022-12-23T14:35:19.351Z,16.6
2022-12-23T14:36:34.559Z,16.6
2022-12-23T14:37:49.778Z,16.6
2022-12-23T14:39:04.905Z,16.6
2022-12-23T14:40:20.194Z,16.6
2022-12-23T14:41:36.381Z,16.6
2022-12-23T14:42:52.575Z,16.6
2022-12-23T14:44:08.679Z,16.6
2022-12-23T14:45:24.853Z,16.6
2022-12-23T14:46:41.052Z,16.6
2022-12-23T14:47:57.336Z,16.6
2022-12-23T14:49:13.506Z,16.6
2022-12-23T14:50:29.608Z,16.6
2022-12-23T14:51:45.808Z,16.6
2022-12-23T14:53:02.089Z,16.6
2022-12-23T14:54:18.185Z,16.6
2022-12-23T14:55:34.364Z,16.6
2022-12-23T14:56:49.668Z,16.6
2022-12-23T14:58:05.769Z,16.6
2022-12-23T14:59:21.960Z,16.5
2022-12-23T15:00:38.223Z,16.5
2022-12-23T15:01:54.331Z,16.5
2022-12-23T15:03:10.609Z,16.5
2022-12-23T15:04:26.791Z,16.4
2022-12-23T15:05:42.012Z,16.4
2022-12-23T15:06:57.219Z,16.4
2022-12-23T15:08:12.438Z,16.4
2022-12-23T15:09:27.637Z,16.4
2022-12-23T15:10:43.820Z,16.3
2022-12-23T15:12:00.021Z,16.3
2022-12-23T15:13:16.214Z,16.3
2022-12-23T15:14:32.404Z,16.3
2022-12-23T15:15:48.579Z,16.3
2022-12-23T15:17:04.671Z,16.3
2022-12-23T15:18:20.952Z,16.3
2022-12-23T15:19:37.150Z,16.3
2022-12-23T15:20:53.345Z,16.3
2022-12-23T15:22:09.522Z,16.2
2022-12-23T15:23:25.727Z,16.2
2022-12-23T15:24:41.899Z,16.2
2022-12-23T15:25:57.116Z,16.2
2022-12-23T15:27:13.207Z,16.2
2022-12-23T15:28:29.492Z,16.2
2022-12-23T15:29:45.669Z,16.2
2022-12-23T15:31:01.872Z,16.2
2022-12-23T15:32:17.968Z,16.2
2022-12-23T15:33:33.259Z,16.2
2022-12-23T15:34:48.489Z,16.2
2022-12-23T15:36:03.596Z,16.2
2022-12-23T15:37:19.869Z,16.1
2022-12-23T15:38:35.082Z,16.1
2022-12-23T15:39:50.196Z,16.1
2022-12-23T15:41:06.494Z,16.1
2022-12-23T15:42:22.683Z,16.1
2022-12-23T15:43:38.864Z,16.1
2022-12-23T15:44:55.051Z,16.1
2022-12-23T15:46:11.234Z,16.1
2022-12-23T15:47:27.336Z,16.1
2022-12-23T15:48:43.512Z,16.1
2022-12-23T15:49:59.801Z,16.1
2022-12-23T15:51:15.990Z,16.1
2022-12-23T15:52:32.093Z,16
2022-12-23T15:53:48.377Z,16
2022-12-23T15:55:04.570Z,16
2022-12-23T15:56:19.661Z,16
2022-12-23T15:57:35.866Z,16
2022-12-23T15:58:52.155Z,16
2022-12-23T16:00:08.344Z,16
2022-12-23T16:01:24.429Z,16
2022-12-23T16:02:40.623Z,16
2022-12-23T16:03:56.899Z,16
2022-12-23T16:05:12.128Z,16
2022-12-23T16:06:27.333Z,16
2022-12-23T16:07:43.511Z,16
2022-12-23T16:08:59.703Z,16
2022-12-23T16:10:15.800Z,16
2022-12-23T16:11:32.087Z,16
2022-12-23T16:12:48.280Z,16
2022-12-23T16:14:04.357Z,16
2022-12-23T16:15:20.646Z,16
2022-12-23T16:16:36.834Z,15.9
2022-12-23T16:17:52.917Z,15.9
2022-12-23T16:19:09.109Z,15.9
2022-12-23T16:20:25.415Z,15.9
2022-12-23T16:21:41.604Z,15.9
2022-12-23T16:22:56.794Z,15.9
2022-12-23T16:24:12.994Z,15.9
2022-12-23T16:25:29.078Z,15.9
2022-12-23T16:26:45.267Z,15.9
2022-12-23T16:28:01.555Z,15.9
2022-12-23T16:29:17.644Z,15.9
2022-12-23T16:30:33.935Z,15.9
2022-12-23T16:31:49.047Z,15.9
2022-12-23T16:33:04.247Z,15.9
2022-12-23T16:34:20.553Z,15.9
2022-12-23T16:35:36.628Z,15.9
2022-12-23T16:36:52.924Z,15.9
2022-12-23T16:38:09.119Z,15.9
2022-12-23T16:39:25.197Z,15.9
2022-12-23T16:40:41.388Z,15.9
2022-12-23T16:41:57.673Z,15.9
2022-12-23T16:43:13.769Z,15.9
2022-12-23T16:44:30.049Z,15.8
2022-12-23T16:45:46.138Z,15.8
2022-12-23T16:47:02.430Z,15.8
2022-12-23T16:48:18.635Z,15.8
2022-12-23T16:49:34.814Z,15.8
2022-12-23T16:50:50.023Z,15.8
2022-12-23T16:52:06.107Z,15.8
2022-12-23T16:53:22.391Z,15.8
2022-12-23T16:54:38.596Z,15.8
2022-12-23T16:55:54.667Z,15.8
2022-12-23T16:57:10.960Z,15.8
2022-12-23T16:58:26.000Z,15.8
2022-12-23T16:59:41.380Z,15.8
2022-12-23T17:00:56.598Z,15.8
2022-12-23T17:02:11.811Z,15.8
2022-12-23T17:03:26.906Z,15.8
2022-12-23T17:04:42.118Z,15.8
2022-12-23T17:05:57.451Z,15.8
2022-12-23T17:07:12.653Z,15.8
2022-12-23T17:08:28.729Z,15.8
2022-12-23T17:09:45.037Z,15.8
2022-12-23T17:11:01.111Z,15.8
2022-12-23T17:12:17.411Z,15.8
2022-12-23T17:13:33.597Z,15.8
2022-12-23T17:14:49.782Z,15.8
2022-12-23T17:16:05.970Z,15.8
2022-12-23T17:17:22.056Z,15.8
2022-12-23T17:18:38.245Z,15.8
2022-12-23T17:19:54.429Z,15.8
2022-12-23T17:21:10.730Z,15.8
2022-12-23T17:22:26.815Z,15.8
2022-12-23T17:23:42.014Z,15.8
2022-12-23T17:24:58.209Z,15.8
2022-12-23T17:26:14.513Z,15.8
2022-12-23T17:27:30.694Z,15.8
2022-12-23T17:28:46.767Z,15.8
2022-12-23T17:30:02.951Z,15.8
2022-12-23T17:31:19.277Z,15.8
2022-12-23T17:32:34.365Z,15.8
2022-12-23T17:33:49.578Z,15.8
2022-12-23T17:35:05.876Z,15.8
2022-12-23T17:36:22.065Z,15.8
2022-12-23T17:37:38.262Z,15.8
2022-12-23T17:38:54.439Z,15.8
2022-12-23T17:40:10.521Z,15.8
2022-12-23T17:41:26.695Z,15.8
2022-12-23T17:42:42.887Z,15.8
2022-12-23T17:43:59.201Z,15.8
2022-12-23T17:45:15.391Z,15.8
2022-12-23T17:46:31.458Z,15.8
2022-12-23T17:47:47.762Z,15.8
2022-12-23T17:49:03.831Z,15.8
2022-12-23T17:50:19.035Z,15.8
2022-12-23T17:51:35.350Z,15.8
2022-12-23T17:52:51.422Z,15.8
2022-12-23T17:54:07.730Z,15.8
2022-12-23T17:55:23.802Z,15.8
2022-12-23T17:56:40.002Z,15.8
2022-12-23T17:57:56.311Z,15.7
2022-12-23T17:59:11.400Z,15.7
2022-12-23T18:00:26.719Z,15.7
2022-12-23T18:01:41.823Z,15.7
2022-12-23T18:02:57.152Z,15.8
2022-12-23T18:04:13.202Z,15.7
2022-12-23T18:05:29.534Z,15.7
2022-12-23T18:06:45.587Z,15.7
2022-12-23T18:08:01.783Z,15.7
2022-12-23T18:09:18.091Z,15.7
2022-12-23T18:10:34.280Z,15.7
2022-12-23T18:11:50.338Z,15.7
2022-12-23T18:13:06.668Z,15.7
2022-12-23T18:14:22.736Z,15.7
2022-12-23T18:15:38.910Z,15.7
2022-12-23T18:16:55.109Z,15.7
2022-12-23T18:18:11.417Z,15.7
2022-12-23T18:19:26.497Z,15.7
2022-12-23T18:20:42.686Z,15.7
2022-12-23T18:21:58.880Z,15.7
2022-12-23T18:23:15.204Z,15.7
2022-12-23T18:24:31.374Z,15.7
2022-12-23T18:25:47.565Z,15.7
2022-12-23T18:27:03.626Z,15.7
2022-12-23T18:28:18.849Z,15.7
2022-12-23T18:29:34.192Z,15.7
2022-12-23T18:30:49.400Z,15.7
2022-12-23T18:32:04.481Z,15.7
2022-12-23T18:33:20.802Z,15.7
2022-12-23T18:34:36.857Z,15.7
2022-12-23T18:35:53.181Z,15.7
2022-12-23T18:37:09.224Z,15.7
2022-12-23T18:38:25.562Z,15.7
2022-12-23T18:39:41.618Z,15.7
2022-12-23T18:40:57.787Z,15.7
2022-12-23T18:42:13.994Z,15.7
2022-12-23T18:43:30.306Z,15.7
2022-12-23T18:44:46.500Z,15.7
2022-12-23T18:46:02.544Z,15.7
2022-12-23T18:47:18.742Z,15.7
2022-12-23T18:48:34.078Z,15.7
2022-12-23T18:49:50.146Z,15.7
2022-12-23T18:51:06.464Z,15.7
2022-12-23T18:52:22.523Z,15.7
2022-12-23T18:53:38.706Z,15.7
2022-12-23T18:54:54.886Z,15.7
2022-12-23T18:56:11.080Z,15.7
2022-12-23T18:57:26.291Z,15.7
2022-12-23T18:58:41.496Z,15.7
2022-12-23T18:59:57.839Z,15.7
2022-12-23T19:01:14.016Z,15.7
2022-12-23T19:02:29.092Z,15.7
2022-12-23T19:03:44.432Z,15.6
2022-12-23T19:05:00.484Z,15.7
2022-12-23T19:06:16.000Z,15.7
2022-12-23T19:07:32.874Z,15.6
2022-12-23T19:08:49.053Z,15.7
2022-12-23T19:10:05.251Z,15.7
2022-12-23T19:11:21.433Z,15.6
2022-12-23T19:12:37.632Z,15.6
2022-12-23T19:13:53.947Z,15.6
2022-12-23T19:15:10.142Z,15.6
2022-12-23T19:16:26.336Z,15.6
2022-12-23T19:17:42.388Z,15.6
2022-12-23T19:18:58.716Z,15.6
2022-12-23T19:20:13.771Z,15.6
2022-12-23T19:21:30.111Z,15.6
2022-12-23T19:22:46.299Z,15.6
2022-12-23T19:24:02.339Z,15.6
2022-12-23T19:25:18.665Z,15.6
2022-12-23T19:26:34.714Z,15.6
2022-12-23T19:27:50.913Z,15.6
2022-12-23T19:29:06.271Z,15.6
2022-12-23T19:30:21.337Z,15.6
2022-12-23T19:31:37.664Z,15.6
2022-12-23T19:32:52.884Z,15.6
2022-12-23T19:34:08.082Z,15.6
2022-12-23T19:35:24.135Z,15.6
2022-12-23T19:36:40.331Z,15.6
2022-12-23T19:37:56.658Z,15.6
2022-12-23T19:39:12.849Z,15.6
2022-12-23T19:40:29.024Z,15.6
2022-12-23T19:41:45.071Z,15.6
2022-12-23T19:43:01.415Z,15.6
2022-12-23T19:44:17.462Z,15.6
2022-12-23T19:45:33.781Z,15.6
2022-12-23T19:46:49.970Z,15.6
2022-12-23T19:48:05.044Z,15.6
2022-12-23T19:49:21.235Z,15.6
2022-12-23T19:50:37.420Z,15.6
2022-12-23T19:51:53.604Z,15.6
2022-12-23T19:53:09.946Z,15.6
2022-12-23T19:54:26.136Z,15.6
2022-12-23T19:55:42.328Z,15.6
2022-12-23T19:56:58.511Z,15.6
2022-12-23T19:58:14.559Z,15.6
2022-12-23T19:59:29.923Z,15.6
2022-12-23T20:00:45.122Z,15.6
2022-12-23T20:02:00.192Z,15.6
2022-12-23T20:03:15.393Z,15.6
2022-12-23T20:04:31.578Z,15.6
2022-12-23T20:05:47.784Z,15.6
2022-12-23T20:07:03.961Z,15.6
2022-12-23T20:08:20.148Z,15.6
2022-12-23T20:09:36.353Z,15.6
2022-12-23T20:10:52.533Z,15.6